createdAt,value
2018-04-15T00:00:08.740Z,8.31
2018-04-15T00:01:30.031Z,8.31
2018-04-15T00:02:30.603Z,8.33
2018-04-15T00:03:30.644Z,8.33
2018-04-15T00:04:30.181Z,8.31
2018-04-15T00:05:52.346Z,8.33
2018-04-15T00:06:52.853Z,8.34
2018-04-15T00:07:52.425Z,8.36
2018-04-15T00:08:52.808Z,8.34
2018-04-15T00:09:52.744Z,8.36
2018-04-15T00:10:52.487Z,8.38
2018-04-15T00:11:53.006Z,8.42
2018-04-15T00:13:14.367Z,8.44
2018-04-15T00:14:35.015Z,8.48
2018-04-15T00:15:36.067Z,8.49
2018-04-15T00:16:35.966Z,8.51
2018-04-15T00:17:35.850Z,8.53
2018-04-15T00:18:35.742Z,8.56
2018-04-15T00:19:35.214Z,8.56
2018-04-15T00:20:35.988Z,8.58
2018-04-15T00:21:35.857Z,8.61
2018-04-15T00:22:56.932Z,8.66
2018-04-15T00:23:57.877Z,8.69
2018-04-15T00:24:57.817Z,8.74
2018-04-15T00:25:57.285Z,8.76
2018-04-15T00:26:58.024Z,8.82
2018-04-15T00:27:57.717Z,8.82
2018-04-15T00:29:18.435Z,8.84
2018-04-15T00:30:18.986Z,8.82
2018-04-15T00:31:19.784Z,8.81
2018-04-15T00:32:19.310Z,8.79
2018-04-15T00:33:18.855Z,8.81
2018-04-15T00:34:19.234Z,8.82
2018-04-15T00:35:18.945Z,8.81
2018-04-15T00:36:19.457Z,8.82
2018-04-15T00:37:19.115Z,8.82
2018-04-15T00:38:18.499Z,8.79
2018-04-15T00:39:19.574Z,8.78
2018-04-15T00:40:19.401Z,8.79
2018-04-15T00:41:19.144Z,8.78
2018-04-15T00:42:18.641Z,8.76
2018-04-15T00:43:19.155Z,8.73
2018-04-15T00:44:18.630Z,8.73
2018-04-15T00:45:19.356Z,8.73
2018-04-15T00:46:18.936Z,8.71
2018-04-15T00:47:18.457Z,8.70
2018-04-15T00:48:18.979Z,8.71
2018-04-15T00:49:18.900Z,8.71
2018-04-15T00:50:19.736Z,8.73
2018-04-15T00:51:19.511Z,8.74
2018-04-15T00:52:19.018Z,8.74
2018-04-15T00:53:18.738Z,8.76
2018-04-15T00:54:19.711Z,8.78
2018-04-15T00:56:01.611Z,8.81
2018-04-15T00:57:02.179Z,8.82
2018-04-15T00:58:02.051Z,8.82
2018-04-15T00:59:02.587Z,8.85
2018-04-15T01:00:02.953Z,8.87
2018-04-15T01:02:07.494Z,8.89
2018-04-15T01:03:08.458Z,8.91
2018-04-15T01:04:07.857Z,8.91
2018-04-15T01:05:09.319Z,8.94
2018-04-15T01:06:08.143Z,8.95
2018-04-15T01:07:08.115Z,8.99
2018-04-15T01:08:07.972Z,8.99
2018-04-15T01:09:29.080Z,9.03
2018-04-15T01:10:51.072Z,9.04
2018-04-15T01:12:12.988Z,9.06
2018-04-15T01:13:13.663Z,9.08
2018-04-15T01:14:13.540Z,9.11
2018-04-15T01:15:34.858Z,9.14
2018-04-15T01:16:56.973Z,9.16
2018-04-15T01:17:57.924Z,9.18
2018-04-15T01:18:57.637Z,9.18
2018-04-15T01:19:57.018Z,9.18
2018-04-15T01:20:57.597Z,9.22
2018-04-15T01:22:18.449Z,9.23
2018-04-15T01:23:19.657Z,9.26
2018-04-15T01:24:18.405Z,9.28
2018-04-15T01:25:18.835Z,9.29
2018-04-15T01:26:18.587Z,9.34
2018-04-15T01:27:40.601Z,9.39
2018-04-15T01:28:41.148Z,9.40
2018-04-15T01:29:40.824Z,9.41
2018-04-15T01:30:40.862Z,9.43
2018-04-15T01:31:41.582Z,9.46
2018-04-15T01:45:27.978Z,9.56
2018-04-15T01:46:49.884Z,9.56
2018-04-15T01:47:50.298Z,9.58
2018-04-15T01:48:49.802Z,9.56
2018-04-15T01:49:50.875Z,9.56
2018-04-15T01:50:50.815Z,9.59
2018-04-15T01:51:50.398Z,9.59
2018-04-15T01:52:49.928Z,9.59
2018-04-15T01:53:51.017Z,9.58
2018-04-15T01:54:50.572Z,9.59
2018-04-15T01:55:50.284Z,9.59
2018-04-15T01:56:50.401Z,9.58
2018-04-15T01:57:50.304Z,9.59
2018-04-15T01:58:50.893Z,9.58
2018-04-15T01:59:51.513Z,9.58
2018-04-15T02:00:50.512Z,9.59
2018-04-15T02:01:50.232Z,9.58
2018-04-15T02:02:50.088Z,9.58
2018-04-15T02:03:50.303Z,9.58
2018-04-15T02:04:49.996Z,9.59
2018-04-15T02:05:50.997Z,9.59
2018-04-15T02:06:51.036Z,9.59
2018-04-15T02:08:11.374Z,9.61
2018-04-15T02:09:11.972Z,9.61
2018-04-15T02:10:11.733Z,9.59
2018-04-15T02:11:32.432Z,9.59
2018-04-15T02:12:33.393Z,9.58
2018-04-15T02:13:32.439Z,9.59
2018-04-15T02:14:32.066Z,9.58
2018-04-15T02:15:33.168Z,9.56
2018-04-15T02:17:14.323Z,9.56
2018-04-15T02:18:14.886Z,9.54
2018-04-15T02:19:14.916Z,9.55
2018-04-15T02:20:36.817Z,9.51
2018-04-15T02:21:36.572Z,9.54
2018-04-15T02:22:36.306Z,9.51
2018-04-15T02:23:36.325Z,9.50
2018-04-15T02:24:36.005Z,9.50
2018-04-15T02:25:36.918Z,9.50
2018-04-15T02:26:37.019Z,9.48
2018-04-15T02:27:58.200Z,9.50
2018-04-15T02:28:58.349Z,9.48
2018-04-15T02:29:58.156Z,9.47
2018-04-15T02:30:58.010Z,9.47
2018-04-15T02:31:57.616Z,9.47
2018-04-15T02:32:57.674Z,9.48
2018-04-15T02:33:57.660Z,9.50
2018-04-15T02:34:57.270Z,9.50
2018-04-15T02:35:57.984Z,9.51
2018-04-15T02:36:57.965Z,9.51
2018-04-15T02:37:57.912Z,9.54
2018-04-15T02:38:57.425Z,9.55
2018-04-15T02:39:58.025Z,9.55
2018-04-15T02:40:57.779Z,9.55
2018-04-15T02:41:57.936Z,9.58
2018-04-15T02:42:57.723Z,9.59
2018-04-15T02:43:57.557Z,9.61
2018-04-15T02:44:58.032Z,9.62
2018-04-15T02:45:57.689Z,9.65
2018-04-15T02:46:57.237Z,9.66
2018-04-15T02:48:18.246Z,9.68
2018-04-15T02:49:18.765Z,9.68
2018-04-15T02:50:18.850Z,9.69
2018-04-15T02:51:18.416Z,9.73
2018-04-15T02:52:41.931Z,9.73
2018-04-15T02:53:42.339Z,9.74
2018-04-15T02:54:42.043Z,9.76
2018-04-15T02:56:02.695Z,9.74
2018-04-15T02:57:03.634Z,9.76
2018-04-15T02:58:03.217Z,9.77
2018-04-15T02:59:02.885Z,9.77
2018-04-15T03:00:02.496Z,9.79
2018-04-15T03:01:03.463Z,9.79
2018-04-15T03:02:03.022Z,9.80
2018-04-15T03:03:03.022Z,9.77
2018-04-15T03:04:02.579Z,9.77
2018-04-15T03:05:23.468Z,9.79
2018-04-15T03:06:23.956Z,9.74
2018-04-15T03:07:24.016Z,9.76
2018-04-15T03:09:04.723Z,9.76
2018-04-15T03:10:05.401Z,9.76
2018-04-15T03:11:04.963Z,9.74
2018-04-15T03:12:05.504Z,9.73
2018-04-15T03:13:05.448Z,9.73
2018-04-15T03:14:05.129Z,9.76
2018-04-15T03:15:05.076Z,9.76
2018-04-15T03:16:04.706Z,9.77
2018-04-15T03:17:05.391Z,9.76
2018-04-15T03:18:04.859Z,9.77
2018-04-15T03:19:05.699Z,9.76
2018-04-15T03:20:05.631Z,9.76
2018-04-15T03:21:05.539Z,9.76
2018-04-15T03:22:05.172Z,9.76
2018-04-15T03:23:04.635Z,9.74
2018-04-15T03:24:05.330Z,9.73
2018-04-15T03:25:04.999Z,9.73
2018-04-15T03:26:04.733Z,9.73
2018-04-15T03:27:05.372Z,9.73
2018-04-15T03:28:04.966Z,9.73
2018-04-15T03:29:25.104Z,9.73
2018-04-15T03:30:25.865Z,9.72
2018-04-15T03:31:25.842Z,9.69
2018-04-15T03:32:46.627Z,9.69
2018-04-15T03:33:47.702Z,9.66
2018-04-15T03:34:46.287Z,9.65
2018-04-15T03:35:46.981Z,9.64
2018-04-15T03:36:47.683Z,9.61
2018-04-15T03:37:46.756Z,9.55
2018-04-15T03:38:46.859Z,9.50
2018-04-15T03:39:46.551Z,9.46
2018-04-15T03:40:47.177Z,9.40
2018-04-15T03:42:07.094Z,9.37
2018-04-15T03:43:07.685Z,9.36
2018-04-15T03:44:07.558Z,9.31
2018-04-15T03:45:07.325Z,9.29
2018-04-15T03:46:08.321Z,9.25
2018-04-15T03:47:07.917Z,9.22
2018-04-15T03:48:07.849Z,9.19
2018-04-15T03:49:07.365Z,9.16
2018-04-15T03:50:07.618Z,9.14
2018-04-15T03:51:07.326Z,9.11
2018-04-15T03:52:07.989Z,9.11
2018-04-15T03:53:07.595Z,9.10
2018-04-15T03:54:07.692Z,9.08
2018-04-15T03:55:07.736Z,9.08
2018-04-15T03:56:07.593Z,9.04
2018-04-15T03:57:07.273Z,9.06
2018-04-15T03:58:28.722Z,9.06
2018-04-15T03:59:28.340Z,9.04
2018-04-15T04:00:49.474Z,9.02
2018-04-15T04:01:50.317Z,9.00
2018-04-15T04:02:49.794Z,9.00
2018-04-15T04:03:50.529Z,9.00
2018-04-15T04:04:49.934Z,9.00
2018-04-15T04:05:49.702Z,9.00
2018-04-15T04:07:10.893Z,9.00
2018-04-15T04:08:10.574Z,8.99
2018-04-15T04:09:11.659Z,8.99
2018-04-15T04:10:11.478Z,8.99
2018-04-15T04:11:11.120Z,8.99
2018-04-15T04:12:11.237Z,8.95
2018-04-15T04:13:11.105Z,8.95
2018-04-15T04:14:11.161Z,8.95
2018-04-15T04:15:10.884Z,8.95
2018-04-15T04:16:11.291Z,8.94
2018-04-15T04:17:10.932Z,8.95
2018-04-15T04:18:10.500Z,8.94
2018-04-15T04:19:11.476Z,8.94
2018-04-15T04:20:11.548Z,8.94
2018-04-15T04:21:11.185Z,8.92
2018-04-15T04:22:32.017Z,8.95
2018-04-15T04:23:32.145Z,8.95
2018-04-15T04:24:33.313Z,8.95
2018-04-15T04:25:32.002Z,8.94
2018-04-15T04:26:32.079Z,8.94
2018-04-15T04:27:52.129Z,8.91
2018-04-15T04:29:13.930Z,8.91
2018-04-15T04:30:34.658Z,8.91
2018-04-15T04:31:56.334Z,8.89
2018-04-15T04:32:56.898Z,8.91
2018-04-15T04:33:56.832Z,8.91
2018-04-15T04:34:56.651Z,8.88
2018-04-15T04:35:57.626Z,8.89
2018-04-15T04:36:56.719Z,8.91
2018-04-15T04:37:56.500Z,8.89
2018-04-15T04:38:56.718Z,8.89
2018-04-15T04:39:56.812Z,8.88
2018-04-15T04:40:56.531Z,8.88
2018-04-15T04:42:37.297Z,8.88
2018-04-15T04:43:58.639Z,8.88
2018-04-15T04:44:59.134Z,8.87
2018-04-15T04:45:59.122Z,8.85
2018-04-15T04:46:58.917Z,8.84
2018-04-15T04:48:40.900Z,8.82
2018-04-15T04:49:40.704Z,8.82
2018-04-15T04:50:41.297Z,8.82
2018-04-15T04:51:41.379Z,8.81
2018-04-15T04:52:41.044Z,8.81
2018-04-15T04:53:41.046Z,8.78
2018-04-15T04:55:01.488Z,8.76
2018-04-15T04:56:02.444Z,8.78
2018-04-15T04:57:02.514Z,8.81
2018-04-15T04:58:02.725Z,8.79
2018-04-15T04:59:02.310Z,8.79
2018-04-15T05:00:02.019Z,8.74
2018-04-15T05:01:02.792Z,8.71
2018-04-15T05:02:26.520Z,8.70
2018-04-15T05:03:23.918Z,8.70
2018-04-15T05:04:22.519Z,8.69
2018-04-15T05:05:23.134Z,8.70
2018-04-15T05:06:22.704Z,8.70
2018-04-15T05:07:23.713Z,8.71
2018-04-15T05:08:42.914Z,8.74
2018-04-15T05:09:44.169Z,8.74
2018-04-15T05:10:43.257Z,8.78
2018-04-15T05:11:44.968Z,8.78
2018-04-15T05:12:42.930Z,8.76
2018-04-15T05:14:06.760Z,8.74
2018-04-15T05:15:28.545Z,8.74
2018-04-15T05:16:49.889Z,8.74
2018-04-15T05:17:49.668Z,8.74
2018-04-15T05:18:49.839Z,8.74
2018-04-15T05:19:49.530Z,8.74
2018-04-15T05:20:50.651Z,8.74
2018-04-15T05:22:09.887Z,8.74
2018-04-15T05:23:11.047Z,8.76
2018-04-15T05:24:10.679Z,8.73
2018-04-15T05:25:10.580Z,8.70
2018-04-15T05:26:10.160Z,8.69
2018-04-15T05:27:11.215Z,8.69
2018-04-15T05:28:30.889Z,8.69
2018-04-15T05:29:31.639Z,8.69
2018-04-15T05:30:32.003Z,8.69
2018-04-15T05:31:32.931Z,8.70
2018-04-15T05:32:31.853Z,8.70
2018-04-15T05:33:52.459Z,8.70
2018-04-15T05:34:53.099Z,8.71
2018-04-15T05:35:53.135Z,8.69
2018-04-15T05:36:53.367Z,8.69
2018-04-15T05:37:53.212Z,8.69
2018-04-15T05:38:53.284Z,8.70
2018-04-15T05:39:53.815Z,8.70
2018-04-15T05:40:53.655Z,8.69
2018-04-15T05:41:53.400Z,8.70
2018-04-15T05:42:53.068Z,8.67
2018-04-15T05:43:53.256Z,8.66
2018-04-15T05:44:53.020Z,8.67
2018-04-15T05:46:35.009Z,8.66
2018-04-15T05:47:56.794Z,8.67
2018-04-15T05:48:56.608Z,8.69
2018-04-15T05:49:57.245Z,8.69
2018-04-15T05:51:18.010Z,8.69
2018-04-15T05:52:19.530Z,8.67
2018-04-15T05:53:18.377Z,8.67
2018-04-15T05:54:18.345Z,8.67
2018-04-15T05:55:18.515Z,8.67
2018-04-15T05:56:38.914Z,8.67
2018-04-15T05:57:39.991Z,8.69
2018-04-15T05:59:00.285Z,8.69
2018-04-15T06:00:01.071Z,8.73
2018-04-15T06:01:00.634Z,8.70
2018-04-15T06:02:00.770Z,8.71
2018-04-15T06:03:00.560Z,8.71
2018-04-15T06:04:00.876Z,8.69
2018-04-15T06:05:42.770Z,8.69
2018-04-15T06:06:43.698Z,8.69
2018-04-15T06:07:42.924Z,8.70
2018-04-15T06:08:43.064Z,8.69
2018-04-15T06:10:03.523Z,8.67
2018-04-15T06:11:03.632Z,8.67
2018-04-15T06:12:03.486Z,8.66
2018-04-15T06:13:03.551Z,8.66
2018-04-15T06:14:03.676Z,8.66
2018-04-15T06:15:03.962Z,8.69
2018-04-15T06:16:03.870Z,8.69
2018-04-15T06:17:25.672Z,8.71
2018-04-15T06:18:25.946Z,8.73
2018-04-15T06:19:46.904Z,8.70
2018-04-15T06:20:46.654Z,8.70
2018-04-15T06:21:46.496Z,8.70
2018-04-15T06:23:07.820Z,8.70
2018-04-15T06:24:08.804Z,8.70
2018-04-15T06:25:29.692Z,8.69
2018-04-15T06:26:30.772Z,8.70
2018-04-15T06:28:12.624Z,8.74
2018-04-15T06:29:12.746Z,8.73
2018-04-15T06:30:12.784Z,8.73
2018-04-15T06:31:13.020Z,8.73
2018-04-15T06:32:13.265Z,8.73
2018-04-15T06:33:13.117Z,8.74
2018-04-15T06:34:13.375Z,8.78
2018-04-15T06:35:13.592Z,8.81
2018-04-15T06:36:12.853Z,8.82
2018-04-15T06:37:13.438Z,8.84
2018-04-15T06:38:55.592Z,8.84
2018-04-15T06:39:56.928Z,8.85
2018-04-15T06:40:56.037Z,8.85
2018-04-15T06:41:56.192Z,8.88
2018-04-15T06:42:56.348Z,8.89
2018-04-15T06:43:56.379Z,8.91
2018-04-15T06:44:56.254Z,8.91
2018-04-15T06:45:56.129Z,8.92
2018-04-15T06:46:56.003Z,8.95
2018-04-15T06:48:17.644Z,8.99
2018-04-15T06:49:18.466Z,9.00
2018-04-15T06:51:05.744Z,9.03
2018-04-15T06:52:06.011Z,9.03
2018-04-15T06:53:06.176Z,9.04
2018-04-15T06:54:06.114Z,9.06
2018-04-15T06:55:06.507Z,9.08
2018-04-15T06:56:26.801Z,9.11
2018-04-15T06:57:26.487Z,9.14
2018-04-15T06:58:27.350Z,9.16
2018-04-15T06:59:27.691Z,9.18
2018-04-15T07:00:32.000Z,9.19
2018-04-15T07:01:28.644Z,9.21
2018-04-15T07:02:26.783Z,9.23
2018-04-15T07:03:26.936Z,9.25
2018-04-15T07:04:28.000Z,9.28
2018-04-15T07:05:27.005Z,9.28
2018-04-15T07:06:48.763Z,9.29
2018-04-15T07:07:49.322Z,9.31
2018-04-15T07:08:48.605Z,9.32
2018-04-15T07:09:48.945Z,9.36
2018-04-15T07:10:50.206Z,9.40
2018-04-15T07:11:48.384Z,9.44
2018-04-15T07:13:31.249Z,9.51
2018-04-15T07:14:32.031Z,9.56
2018-04-15T07:15:31.316Z,9.62
2018-04-15T07:16:35.460Z,9.68
2018-04-15T07:17:31.267Z,9.72
2018-04-15T07:18:52.426Z,9.77
2018-04-15T07:19:54.261Z,9.80
2018-04-15T07:21:14.033Z,9.86
2018-04-15T07:22:14.228Z,9.92
2018-04-15T07:23:13.987Z,9.97
2018-04-15T07:24:15.100Z,9.99
2018-04-15T07:25:34.481Z,10.05
2018-04-15T07:26:35.277Z,10.10
2018-04-15T07:27:36.325Z,10.15
2018-04-15T07:28:35.915Z,10.16
2018-04-15T07:29:35.058Z,10.20
2018-04-15T07:30:35.223Z,10.22
2018-04-15T07:31:35.314Z,10.28
2018-04-15T07:32:35.766Z,10.28
2018-04-15T07:33:35.806Z,10.28
2018-04-15T07:34:35.177Z,10.30
2018-04-15T07:35:56.957Z,10.30
2018-04-15T07:36:57.097Z,10.31
2018-04-15T07:37:58.443Z,10.34
2018-04-15T07:38:57.950Z,10.34
2018-04-15T07:39:58.535Z,10.38
2018-04-15T07:40:58.177Z,10.38
2018-04-15T07:41:58.069Z,10.41
2018-04-15T07:42:58.390Z,10.44
2018-04-15T07:43:57.132Z,10.46
2018-04-15T07:44:57.738Z,10.44
2018-04-15T07:45:56.693Z,10.46
2018-04-15T07:46:57.238Z,10.49
2018-04-15T07:47:57.620Z,10.53
2018-04-15T07:48:57.188Z,10.56
2018-04-15T07:49:57.072Z,10.59
2018-04-15T07:50:57.266Z,10.61
2018-04-15T07:51:57.635Z,10.64
2018-04-15T07:52:57.230Z,10.68
2018-04-15T07:53:57.579Z,10.69
2018-04-15T07:54:57.628Z,10.71
2018-04-15T07:55:56.866Z,10.74
2018-04-15T07:56:57.833Z,10.76
2018-04-15T07:57:57.165Z,10.81
2018-04-15T07:58:57.397Z,10.86
2018-04-15T07:59:58.844Z,10.90
2018-04-15T08:00:57.012Z,10.93
2018-04-15T08:01:57.198Z,10.97
2018-04-15T08:02:57.706Z,11.02
2018-04-15T08:03:57.246Z,11.07
2018-04-15T08:04:59.426Z,11.05
2018-04-15T08:05:58.026Z,11.08
2018-04-15T08:06:57.267Z,11.10
2018-04-15T08:07:57.681Z,11.10
2018-04-15T08:08:56.981Z,11.12
2018-04-15T08:09:57.336Z,11.11
2018-04-15T08:10:57.335Z,11.12
2018-04-15T08:11:58.216Z,11.14
2018-04-15T08:12:57.507Z,11.18
2018-04-15T08:13:56.805Z,11.23
2018-04-15T08:14:57.020Z,11.26
2018-04-15T08:15:58.127Z,11.33
2018-04-15T08:16:57.848Z,11.40
2018-04-15T08:18:18.325Z,11.45
2018-04-15T08:19:18.919Z,11.59
2018-04-15T08:20:18.919Z,11.68
2018-04-15T08:21:18.531Z,11.78
2018-04-15T08:22:18.973Z,11.86
2018-04-15T08:23:18.308Z,11.91
2018-04-15T08:24:19.292Z,12.02
2018-04-15T08:25:40.041Z,12.12
2018-04-15T08:26:40.077Z,12.28
2018-04-15T08:27:40.599Z,12.42
2018-04-15T08:29:02.716Z,12.67
2018-04-15T08:30:03.487Z,12.76
2018-04-15T08:31:05.142Z,12.85
2018-04-15T08:32:26.651Z,13.25
2018-04-15T08:33:25.797Z,13.52
2018-04-15T08:34:26.982Z,13.74
2018-04-15T08:35:26.683Z,13.95
2018-04-15T08:36:27.053Z,14.12
2018-04-15T08:37:26.302Z,14.50
2018-04-15T08:38:26.382Z,14.69
2018-04-15T08:39:26.928Z,15.03
2018-04-15T08:40:26.106Z,15.19
2018-04-15T08:41:26.186Z,15.47
2018-04-15T08:42:26.802Z,15.36
2018-04-15T08:43:26.063Z,15.37
2018-04-15T08:44:27.060Z,15.33
2018-04-15T08:45:27.883Z,15.21
2018-04-15T08:46:26.579Z,15.06
2018-04-15T08:47:25.818Z,14.92
2018-04-15T08:48:26.774Z,14.70
2018-04-15T08:49:26.819Z,14.43
2018-04-15T08:50:27.529Z,14.30
2018-04-15T08:51:49.214Z,14.26
2018-04-15T08:52:50.906Z,14.18
2018-04-15T08:53:50.726Z,14.07
2018-04-15T08:54:49.051Z,13.96
2018-04-15T08:55:48.509Z,13.90
2018-04-15T08:56:48.943Z,13.79
2018-04-15T08:57:51.415Z,13.70
2018-04-15T08:59:09.758Z,13.60
2018-04-15T09:00:10.011Z,13.53
2018-04-15T09:01:53.224Z,13.56
2018-04-15T09:02:54.010Z,13.68
2018-04-15T09:03:53.755Z,13.89
2018-04-15T09:05:14.530Z,14.03
2018-04-15T09:06:38.618Z,14.20
2018-04-15T09:07:38.419Z,14.40
2018-04-15T09:08:59.417Z,14.41
2018-04-15T09:09:59.907Z,14.40
2018-04-15T09:11:00.745Z,14.30
2018-04-15T09:12:21.406Z,14.32
2018-04-15T09:13:21.239Z,14.40
2018-04-15T09:14:20.571Z,14.72
2018-04-15T09:15:21.002Z,15.25
2018-04-15T09:16:20.185Z,15.42
2018-04-15T09:17:21.054Z,15.39
2018-04-15T09:18:20.607Z,15.51
2018-04-15T09:19:21.024Z,15.54
2018-04-15T09:20:20.780Z,15.46
2018-04-15T09:21:21.496Z,15.29
2018-04-15T09:22:21.163Z,15.28
2018-04-15T09:24:24.417Z,15.03
2018-04-15T09:25:24.864Z,14.89
2018-04-15T09:26:25.617Z,14.85
2018-04-15T09:27:23.927Z,14.84
2018-04-15T09:28:24.445Z,14.88
2018-04-15T09:29:26.139Z,14.77
2018-04-15T09:30:24.756Z,14.69
2018-04-15T09:31:24.454Z,14.54
2018-04-15T09:32:48.407Z,14.53
2018-04-15T09:33:48.638Z,14.60
2018-04-15T09:34:48.294Z,14.68
2018-04-15T09:36:11.918Z,14.94
2018-04-15T09:37:09.727Z,15.06
2018-04-15T09:38:09.562Z,15.00
2018-04-15T09:39:10.157Z,14.92
2018-04-15T09:40:10.659Z,14.89
2018-04-15T09:41:31.313Z,14.91
2018-04-15T09:42:31.386Z,14.89
2018-04-15T09:43:33.392Z,15.03
2018-04-15T09:44:55.975Z,15.11
2018-04-15T09:45:58.576Z,15.15
2018-04-15T09:47:39.174Z,15.18
2018-04-15T09:48:40.511Z,15.19
2018-04-15T09:49:39.966Z,15.18
2018-04-15T09:50:40.037Z,15.22
2018-04-15T09:51:40.843Z,15.31
2018-04-15T09:52:40.358Z,15.29
2018-04-15T09:53:39.727Z,15.36
2018-04-15T09:55:03.204Z,15.36
2018-04-15T09:56:24.095Z,15.44
2018-04-15T09:57:50.716Z,15.43
2018-04-15T09:58:49.044Z,15.47
2018-04-15T09:59:49.501Z,15.44
2018-04-15T10:00:51.640Z,15.43
2018-04-15T10:01:48.752Z,15.39
2018-04-15T10:02:50.648Z,15.43
2018-04-15T10:03:49.727Z,15.51
2018-04-15T10:05:14.203Z,15.51
2018-04-15T10:06:13.953Z,15.54
2018-04-15T10:07:12.470Z,15.68
2018-04-15T10:08:57.643Z,15.84
2018-04-15T10:09:57.678Z,15.92
2018-04-15T10:10:57.534Z,16.01
2018-04-15T10:11:57.016Z,15.97
2018-04-15T10:13:21.652Z,16.17
2018-04-15T10:14:20.911Z,16.31
2018-04-15T10:15:22.681Z,16.39
2018-04-15T10:16:23.107Z,16.54
2018-04-15T10:17:45.224Z,17.24
2018-04-15T10:18:46.654Z,18.20
2018-04-15T10:19:45.340Z,19.07
2018-04-15T10:21:08.801Z,19.66
2018-04-15T10:22:32.263Z,19.30
2018-04-15T10:23:32.533Z,19.11
2018-04-15T10:24:32.684Z,19.12
2018-04-15T10:25:32.070Z,19.22
2018-04-15T10:26:57.416Z,19.29
2018-04-15T10:27:56.697Z,19.27
2018-04-15T10:28:58.329Z,19.22
2018-04-15T10:29:56.557Z,19.19
2018-04-15T10:30:56.906Z,19.18
2018-04-15T10:32:23.290Z,19.37
2018-04-15T10:33:24.171Z,19.99
2018-04-15T10:34:23.469Z,20.60
2018-04-15T10:35:22.490Z,21.29
2018-04-15T10:36:24.122Z,21.93
2018-04-15T10:37:47.719Z,23.02
2018-04-15T10:39:13.624Z,21.89
2018-04-15T10:41:30.676Z,20.95
2018-04-15T10:42:30.195Z,20.95
2018-04-15T10:43:30.878Z,21.92
2018-04-15T10:44:53.265Z,23.00
2018-04-15T10:45:53.739Z,23.62
2018-04-15T10:46:56.188Z,23.13
2018-04-15T10:48:24.713Z,22.25
2018-04-15T10:49:24.252Z,21.67
2018-04-15T10:50:24.109Z,21.32
2018-04-15T10:51:25.635Z,21.03
2018-04-15T10:52:25.341Z,20.93
2018-04-15T10:53:25.302Z,20.85
2018-04-15T10:54:22.982Z,20.63
2018-04-15T10:55:24.623Z,20.50
2018-04-15T10:56:51.073Z,20.37
2018-04-15T10:57:50.882Z,20.22
2018-04-15T10:58:52.544Z,20.06
2018-04-15T10:59:54.336Z,19.99
2018-04-15T11:00:54.234Z,19.89
2018-04-15T11:01:54.318Z,19.84
2018-04-15T11:02:52.416Z,19.73
2018-04-15T11:03:53.396Z,19.56
2018-04-15T11:04:52.593Z,19.49
2018-04-15T11:05:50.826Z,19.30
2018-04-15T11:06:52.468Z,19.21
2018-04-15T11:07:53.602Z,19.71
2018-04-15T11:08:53.271Z,20.75
2018-04-15T11:09:51.937Z,21.57
2018-04-15T11:10:50.953Z,22.45
2018-04-15T11:11:52.100Z,23.08
2018-04-15T11:12:50.971Z,23.40
2018-04-15T11:14:18.758Z,22.80
2018-04-15T11:15:17.240Z,22.32
2018-04-15T11:16:19.069Z,21.80
2018-04-15T11:18:06.265Z,21.36
2018-04-15T11:19:07.259Z,22.20
2018-04-15T11:20:30.312Z,22.90
2018-04-15T11:21:31.313Z,22.57
2018-04-15T11:22:29.991Z,23.02
2018-04-15T11:23:30.738Z,23.21
2018-04-15T11:24:57.194Z,23.74
2018-04-15T11:25:58.347Z,23.93
2018-04-15T11:27:24.164Z,24.63
2018-04-15T11:28:24.285Z,25.25
2018-04-15T11:29:30.264Z,25.10
2018-04-15T11:31:38.776Z,24.55
2018-04-15T11:32:41.282Z,24.96
2018-04-15T11:33:39.887Z,25.11
2018-04-15T11:34:37.767Z,25.16
2018-04-15T11:35:43.098Z,25.17
2018-04-15T11:37:04.406Z,24.85
2018-04-15T11:38:07.901Z,24.29
2018-04-15T11:39:03.740Z,23.83
2018-04-15T11:40:06.641Z,24.39
2018-04-15T11:41:07.420Z,25.13
2018-04-15T11:42:05.739Z,25.88
2018-04-15T11:43:04.581Z,26.25
2018-04-15T11:44:31.771Z,26.59
2018-04-15T11:45:32.562Z,26.95
2018-04-15T11:46:31.648Z,27.32
2018-04-15T11:47:32.185Z,27.59
2018-04-15T11:48:32.029Z,27.47
2018-04-15T11:50:01.747Z,26.65
2018-04-15T11:51:04.665Z,25.70
2018-04-15T11:51:59.327Z,25.03
2018-04-15T11:53:25.143Z,24.96
2018-04-15T11:54:22.646Z,25.59
2018-04-15T11:55:25.271Z,26.03
2018-04-15T11:56:48.591Z,26.43
2018-04-15T11:57:50.752Z,26.63
2018-04-15T11:58:48.802Z,26.60
2018-04-15T11:59:49.214Z,25.98
2018-04-15T12:00:57.822Z,25.78
2018-04-15T12:03:16.988Z,26.34
2018-04-15T12:04:13.341Z,26.31
2018-04-15T12:05:14.704Z,26.60
2018-04-15T12:06:09.456Z,26.71
2018-04-15T12:07:07.331Z,26.96
2018-04-15T12:08:41.180Z,26.75
2018-04-15T12:09:35.282Z,26.19
2018-04-15T12:11:08.351Z,25.90
2018-04-15T12:12:10.249Z,25.17
2018-04-15T12:13:58.706Z,24.48
2018-04-15T12:15:35.917Z,24.99
2018-04-15T12:16:32.314Z,24.95
2018-04-15T12:17:31.858Z,25.31
2018-04-15T12:19:08.979Z,25.47
2018-04-15T12:20:01.095Z,25.33
2018-04-15T12:21:11.066Z,26.02
2018-04-15T12:22:03.979Z,26.02
2018-04-15T12:23:08.248Z,26.10
2018-04-15T12:24:45.414Z,25.43
2018-04-15T12:25:33.482Z,24.89
2018-04-15T12:26:34.080Z,24.28
2018-04-15T12:27:33.945Z,23.74
2018-04-15T12:28:33.148Z,23.34
2018-04-15T12:29:34.488Z,23.17
2018-04-15T12:30:37.380Z,22.78
2018-04-15T12:31:35.972Z,22.50
2018-04-15T12:32:31.905Z,22.93
2018-04-15T12:33:33.237Z,23.23
2018-04-15T12:34:33.474Z,23.77
2018-04-15T12:35:34.015Z,23.81
2018-04-15T12:36:34.659Z,23.74
2018-04-15T12:37:32.509Z,24.26
2018-04-15T12:38:59.508Z,24.63
2018-04-15T12:40:01.796Z,25.25
2018-04-15T12:41:00.478Z,25.14
2018-04-15T12:42:02.885Z,25.26
2018-04-15T12:42:59.543Z,25.59
2018-04-15T12:44:24.282Z,25.23
2018-04-15T12:45:42.501Z,24.65
2018-04-15T12:46:43.513Z,24.53
2018-04-15T12:47:46.450Z,24.38
2018-04-15T12:48:43.711Z,24.38
2018-04-15T12:49:42.765Z,24.96
2018-04-15T12:50:44.198Z,25.10
2018-04-15T12:51:43.878Z,25.25
2018-04-15T12:52:44.112Z,25.08
2018-04-15T12:53:44.700Z,24.93
2018-04-15T12:54:44.085Z,24.53
2018-04-15T12:56:09.939Z,24.13
2018-04-15T12:57:31.776Z,23.88
2018-04-15T12:58:59.899Z,23.62
2018-04-15T13:00:22.890Z,23.76
2018-04-15T13:01:22.553Z,23.69
2018-04-15T13:02:23.107Z,23.51
2018-04-15T13:03:50.274Z,23.27
2018-04-15T13:04:53.999Z,23.59
2018-04-15T13:05:48.582Z,24.08
2018-04-15T13:06:51.247Z,23.83
2018-04-15T13:07:50.786Z,23.59
2018-04-15T13:08:51.166Z,23.47
2018-04-15T13:10:36.065Z,23.63
2018-04-15T13:11:36.054Z,24.24
2018-04-15T13:13:01.160Z,24.66
2018-04-15T13:14:00.434Z,24.32
2018-04-15T13:15:03.179Z,24.33
2018-04-15T13:16:01.285Z,24.86
2018-04-15T13:17:02.092Z,25.35
2018-04-15T13:18:02.629Z,25.73
2018-04-15T13:19:02.477Z,26.06
2018-04-15T13:20:02.182Z,26.31
2018-04-15T13:21:01.789Z,26.51
2018-04-15T13:22:00.453Z,26.37
2018-04-15T13:23:25.821Z,26.58
2018-04-15T13:24:25.605Z,26.90
2018-04-15T13:25:26.496Z,27.15
2018-04-15T13:26:26.429Z,27.08
2018-04-15T13:27:24.309Z,26.43
2018-04-15T13:28:25.382Z,26.07
2018-04-15T13:29:51.944Z,25.54
2018-04-15T13:30:52.165Z,25.14
2018-04-15T13:31:51.998Z,25.50
2018-04-15T13:32:53.730Z,25.68
2018-04-15T13:33:54.311Z,25.47
2018-04-15T13:34:52.535Z,25.47
2018-04-15T13:35:51.765Z,25.04
2018-04-15T13:37:15.576Z,24.47
2018-04-15T13:38:40.364Z,24.11
2018-04-15T13:39:39.966Z,23.93
2018-04-15T13:40:40.618Z,23.78
2018-04-15T13:41:41.827Z,23.68
2018-04-15T13:42:43.778Z,23.69
2018-04-15T13:43:43.699Z,23.87
2018-04-15T13:45:14.278Z,24.29
2018-04-15T13:46:16.145Z,24.74
2018-04-15T13:47:13.414Z,25.13
2018-04-15T13:48:13.584Z,25.58
2018-04-15T13:49:36.554Z,26.15
2018-04-15T13:51:01.371Z,26.47
2018-04-15T13:52:00.451Z,26.48
2018-04-15T13:53:01.283Z,26.21
2018-04-15T13:54:02.362Z,26.36
2018-04-15T13:55:00.052Z,26.29
2018-04-15T13:56:02.368Z,26.18
2018-04-15T13:57:24.582Z,26.10
2018-04-15T13:58:27.101Z,26.22
2018-04-15T13:59:53.528Z,26.19
2018-04-15T14:00:54.036Z,26.02
2018-04-15T14:01:55.723Z,25.99
2018-04-15T14:02:53.326Z,26.18
2018-04-15T14:03:51.160Z,25.90
2018-04-15T14:04:54.200Z,25.40
2018-04-15T14:05:53.335Z,24.81
2018-04-15T14:06:53.952Z,24.45
2018-04-15T14:07:56.455Z,24.11
2018-04-15T14:08:53.132Z,23.91
2018-04-15T14:09:51.927Z,23.80
2018-04-15T14:11:22.329Z,23.56
2018-04-15T14:12:44.274Z,24.02
2018-04-15T14:13:43.980Z,23.81
2018-04-15T14:14:48.420Z,23.51
2018-04-15T14:15:43.813Z,23.32
2018-04-15T14:16:44.863Z,23.10
2018-04-15T14:17:46.046Z,22.83
2018-04-15T14:18:46.134Z,22.35
2018-04-15T14:19:43.982Z,22.04
2018-04-15T14:20:44.136Z,21.75
2018-04-15T14:21:45.300Z,21.57
2018-04-15T14:22:47.957Z,21.46
2018-04-15T14:23:45.722Z,21.25